Data for 01/15/2007

Time Sea-Level Adjusted Pressure Absolute Pressure Temperature Relative Humidity Dew Point   
(mb) (inHg) (mb) (inHg) (C) (F) (%) (C) (F)
00:05 1026 30.3 855 25.25 -15.1 4.7 75 -18.7 -1.6
00:10 1026 30.3 855 25.25 -15.5 4.1 73 -19.3 -2.8
00:15 1026 30.3 855 25.25 -15.7 3.8 74 -19.4 -2.9
00:20 1026 30.3 855 25.25 -15.7 3.8 74 -19.3 -2.7
00:25 1026 30.3 855 25.25 -15.7 3.7 73 -19.5 -3.1
00:30 1026 30.3 855 25.25 -15.6 4 73 -19.4 -2.9
00:35 1026 30.3 855 25.25 -15.6 4 72 -19.5 -3.1
00:40 1026 30.3 855 25.25 -15.6 4 72 -19.5 -3.2
00:45 1026 30.3 855 25.25 -15.5 4.2 72 -19.4 -3
00:50 1026 30.3 855 25.25 -15.4 4.4 72 -19.4 -2.9
00:55 1026 30.3 855 25.25 -15.3 4.5 72 -19.3 -2.8
01:00 1026 30.3 855 25.25 -15.2 4.6 72 -19.1 -2.5
01:05 1026 30.3 855 25.25 -15.1 4.9 71 -19.2 -2.5
01:10 1026 30.3 855 25.25 -15.1 4.8 73 -18.9 -2
01:15 1026 30.3 855 25.25 -14.9 5.1 74 -18.6 -1.4
01:20 1026 30.3 855 25.25 -14.9 5.2 70 -19.2 -2.5
01:25 1026 30.3 855 25.25 -15.1 4.8 79 -17.9 -0.3
01:30 1026 30.3 855 25.25 -15.1 4.9 74 -18.8 -1.8
01:35 1026 30.3 855 25.25 -15.1 4.9 71 -19.1 -2.5
01:40 1026 30.3 855 25.25 -15 5 71 -19.1 -2.4
01:45 1026 30.3 855 25.25 -15.1 4.9 74 -18.7 -1.7
01:50 1026 30.3 855 25.25 -14.9 5.1 72 -18.9 -2
01:55 1026 30.3 855 25.25 -14.9 5.2 73 -18.7 -1.6
02:00 1026 30.3 855 25.25 -14.5 5.8 71 -18.7 -1.6
02:05 1026 30.3 855 25.25 -14.9 5.2 71 -19.1 -2.4
02:10 1026 30.3 855 25.25 -15.2 4.6 72 -19.2 -2.6
02:15 1026 30.3 855 25.25 -15.2 4.6 72 -19.2 -2.6
02:20 1026 30.3 856 25.28 -15.2 4.7 72 -19.1 -2.5
02:25 1026 30.3 856 25.28 -15.5 4 73 -19.3 -2.7
02:30 1026 30.3 856 25.28 -15.6 3.9 74 -19.3 -2.7
02:35 1026 30.3 856 25.28 -15.7 3.7 74 -19.4 -2.9
02:40 1026 30.3 856 25.28 -15.8 3.5 76 -19.1 -2.4
02:45 1026 30.3 856 25.28 -15.8 3.6 73 -19.5 -3.1
02:50 1026 30.3 855 25.25 -15.8 3.5 72 -19.7 -3.5
02:55 1026 30.3 855 25.25 -16.1 3.1 72 -20 -4
03:00 1026 30.3 855 25.25 -16.3 2.6 74 -19.9 -3.9
03:05 1026 30.3 856 25.28 -16.1 3 73 -19.8 -3.7
03:10 1026 30.3 856 25.28 -16.1 3.1 73 -19.9 -3.8
03:15 1026 30.3 856 25.28 -16 3.2 74 -19.7 -3.4
03:20 1026 30.3 856 25.28 -15.8 3.6 73 -19.6 -3.2
03:25 1026 30.3 855 25.25 -15.8 3.5 74 -19.5 -3.1
03:30 1026 30.3 856 25.28 -15.9 3.3 74 -19.5 -3.2
03:35 1026 30.3 856 25.28 -16 3.3 74 -19.6 -3.2
03:40 1026 30.3 856 25.28 -16 3.1 74 -19.6 -3.3
03:45 1026 30.3 855 25.25 -16.2 2.9 74 -19.8 -3.7
03:50 1026 30.3 855 25.25 -16.2 2.8 76 -19.5 -3.1
03:55 1026 30.3 856 25.28 -16 3.2 76 -19.3 -2.8
04:00 1026 30.3 856 25.28 -15.9 3.4 72 -19.8 -3.6
04:05 1027 30.33 856 25.28 -16.1 2.9 73 -20 -3.9
04:10 1027 30.33 856 25.28 -16.3 2.7 74 -19.9 -3.8
04:15 1027 30.33 856 25.28 -16.1 3.1 75 -19.5 -3.2
04:20 1027 30.33 856 25.28 -15.8 3.5 74 -19.4 -3
04:25 1027 30.33 856 25.28 -15.9 3.4 72 -19.9 -3.8
04:30 1027 30.33 856 25.28 -16.3 2.6 72 -20.3 -4.5
04:35 1027 30.33 856 25.28 -16.7 2 73 -20.5 -4.8
04:40 1027 30.33 856 25.28 -17 1.3 75 -20.5 -5
04:45 1027 30.33 856 25.28 -16.9 1.6 74 -20.5 -4.9
04:50 1027 30.33 856 25.28 -16.8 1.7 74 -20.4 -4.7
04:55 1027 30.33 856 25.28 -16.8 1.8 73 -20.6 -5
05:00 1027 30.33 856 25.28 -16.8 1.7 73 -20.6 -5.2
05:05 1027 30.33 856 25.28 -16.9 1.6 72 -20.8 -5.4
05:10 1027 30.33 856 25.28 -17.1 1.2 73 -20.9 -5.7
05:15 1027 30.33 856 25.28 -17.4 0.8 73 -21.1 -6
05:20 1027 30.33 856 25.28 -17.5 0.5 74 -21.1 -6
05:25 1027 30.33 856 25.28 -17.6 0.3 74 -21.1 -6
05:30 1027 30.33 856 25.28 -17.7 0.2 75 -21.1 -6.1
05:35 1027 30.33 856 25.28 -17.5 0.6 74 -21.1 -6
05:40 1027 30.33 856 25.28 -17.5 0.5 74 -21.1 -5.9
05:45 1027 30.33 856 25.28 -17.6 0.3 75 -21.1 -5.9
05:50 1027 30.33 856 25.28 -17.6 0.4 74 -21.2 -6.1
05:55 1027 30.33 856 25.28 -17.5 0.5 75 -20.9 -5.5
06:00 1027 30.33 856 25.28 -17.4 0.6 75 -20.8 -5.5
06:05 1027 30.33 856 25.28 -17.4 0.7 76 -20.7 -5.2
06:10 1027 30.33 856 25.28 -17.3 0.8 76 -20.6 -5.1
06:15 1027 30.33 856 25.28 -17 1.3 75 -20.5 -5
06:20 1027 30.33 856 25.28 -16.8 1.8 74 -20.4 -4.8
06:25 1027 30.33 857 25.31 -16.9 1.7 74 -20.4 -4.8
06:30 1027 30.33 857 25.31 -16.8 1.8 74 -20.4 -4.7
06:35 1027 30.33 857 25.31 -16.7 1.9 74 -20.3 -4.5
06:40 1027 30.33 857 25.31 -16.8 1.7 75 -20.4 -4.6
06:45 1027 30.33 857 25.31 -17.4 0.6 76 -20.6 -5.1
06:50 1027 30.33 857 25.31 -17.7 0.2 76 -21 -5.8
06:55 1027 30.33 857 25.31 -18.3 -1 78 -21.2 -6.2
07:00 1027 30.33 857 25.31 -18.4 -1 80 -21.1 -5.9
07:05 1027 30.33 857 25.31 -18.2 -0.8 80 -20.9 -5.6
07:10 1027 30.33 857 25.31 -18.2 -0.7 80 -20.9 -5.6
07:15 1027 30.33 857 25.31 -18 -0.3 79 -20.7 -5.3
07:20 1027 30.33 857 25.31 -18.1 -0.5 79 -20.9 -5.6
07:25 1027 30.33 857 25.31 -17.9 -0.2 77 -20.9 -5.7
07:30 1027 30.33 857 25.31 -17.8 -0.1 78 -20.7 -5.3
07:35 1027 30.33 857 25.31 -17.5 0.5 77 -20.6 -5.2
07:40 1027 30.33 857 25.31 -17.3 0.8 76 -20.6 -5.1
07:45 1027 30.33 857 25.31 -17.3 0.8 76 -20.6 -5
07:50 1027 30.33 857 25.31 -17.3 0.9 75 -20.7 -5.3
07:55 1027 30.33 857 25.31 -17.5 0.5 76 -20.7 -5.3
08:00 1027 30.33 857 25.31 -17.5 0.4 78 -20.5 -4.9
08:05 1028 30.36 857 25.31 -17.8 0 77 -20.9 -5.6
08:10 1028 30.36 857 25.31 -17.8 -0.1 77 -20.9 -5.7
08:15 1028 30.36 857 25.31 -18.1 -0.5 78 -21 -5.7
08:20 1028 30.36 857 25.31 -18.2 -0.7 79 -21 -5.8
08:25 1028 30.36 857 25.31 -18.2 -0.7 79 -21 -5.8
08:30 1028 30.36 857 25.31 -17.9 -0.3 77 -21 -5.8
08:35 1028 30.36 857 25.31 -17.9 -0.3 78 -20.9 -5.6
08:40 1028 30.36 857 25.31 -17.8 -0 77 -21 -5.7
08:45 1028 30.36 857 25.31 -17.5 0.5 75 -20.9 -5.5
08:50 1028 30.36 857 25.31 -17.2 1.1 74 -20.8 -5.4
08:55 1028 30.36 857 25.31 -16.9 1.5 75 -20.4 -4.7
09:00 1028 30.36 857 25.31 -16.3 2.6 73 -20.2 -4.3
09:05 1028 30.36 857 25.31 -16 3.3 74 -19.7 -3.4
09:10 1028 30.36 857 25.31 -15.2 4.6 69 -19.6 -3.3
09:15 1028 30.36 857 25.31 -14.4 6.1 66 -19.5 -3
09:20 1028 30.36 857 25.31 -13.2 8.3 62 -19 -2.3
09:25 1028 30.36 857 25.31 -13 8.6 61 -19.1 -2.3
09:30 1028 30.36 857 25.31 -13 8.7 62 -18.8 -1.8
09:35 1028 30.36 857 25.31 -12.7 9.1 61 -18.7 -1.6
09:40 1028 30.36 857 25.31 -13.4 7.9 64 -18.9 -2
09:45 1028 30.36 857 25.31 -13.6 7.6 64 -19.1 -2.3
09:50 1028 30.36 858 25.34 -12.6 9.4 60 -18.8 -1.8
09:55 1028 30.36 858 25.34 -12 10.3 59 -18.5 -1.2
10:00 1028 30.36 858 25.34 -11.8 10.8 57 -18.7 -1.7
10:05 1028 30.36 858 25.34 -11.9 10.7 57 -18.7 -1.6
10:10 1028 30.36 858 25.34 -12 10.3 58 -18.7 -1.6
10:15 1029 30.39 858 25.34 -11.7 11 58 -18.4 -1.1
10:20 1029 30.39 858 25.34 -10.6 13 55 -18 -0.4
10:25 1029 30.39 858 25.34 -10.3 13.4 54 -18 -0.5
10:30 1029 30.39 858 25.34 -10.7 12.8 55 -18.1 -0.5
10:35 1029 30.39 858 25.34 -11.2 11.8 56 -18.3 -0.9
10:40 1029 30.39 858 25.34 -11.4 11.5 57 -18.4 -1.2
10:45 1029 30.39 858 25.34 -10.4 13.4 54 -18.1 -0.6
10:50 1029 30.39 858 25.34 -9.7 14.6 51 -18 -0.4
10:55 1029 30.39 858 25.34 -9.8 14.3 52 -18 -0.3
11:00 1029 30.39 858 25.34 -9.9 14.2 52 -18 -0.4
11:05 1029 30.39 858 25.34 -9.7 14.5 52 -17.8 -0.1
11:10 1029 30.39 858 25.34 -9.9 14.1 52 -17.9 -0.3
11:15 1029 30.39 858 25.34 -10.1 13.9 54 -17.7 0.2
11:20 1029 30.39 858 25.34 -9.4 15 51 -17.9 -0.2
11:25 1029 30.39 858 25.34 -9.1 15.6 50 -17.8 -0.1
11:30 1029 30.39 858 25.34 -9.2 15.4 50 -17.8 -0.1
11:35 1028 30.36 858 25.34 -9.1 15.6 48 -18.3 -1
11:40 1028 30.36 858 25.34 -8.7 16.3 47 -18.2 -0.8
11:45 1028 30.36 858 25.34 -8.4 17 44 -18.5 -1.4
11:50 1028 30.36 858 25.34 -8.6 16.6 47 -18.1 -0.5
11:55 1028 30.36 858 25.34 -8.7 16.3 46 -18.4 -1.1
12:00 1028 30.36 858 25.34 -8.6 16.4 46 -18.2 -0.7
12:05 1028 30.36 857 25.31 -8.2 17.2 45 -18.3 -0.9
12:10 1028 30.36 857 25.31 -8.2 17.2 46 -18 -0.4
12:15 1028 30.36 857 25.31 -8.5 16.7 46 -18.2 -0.8
12:20 1028 30.36 857 25.31 -9 15.9 47 -18.3 -0.9
12:25 1028 30.36 857 25.31 -9.9 14.1 50 -18.4 -1.2
12:30 1028 30.36 857 25.31 -10.6 13 52 -18.7 -1.7
12:35 1028 30.36 857 25.31 -11.1 12.1 52 -19 -2.2
12:40 1028 30.36 857 25.31 -11.1 12 54 -18.8 -1.8
12:45 1028 30.36 857 25.31 -11 12.2 55 -18.3 -0.9
12:50 1028 30.36 857 25.31 -10.5 13.1 52 -18.5 -1.3
12:55 1028 30.36 857 25.31 -10.5 13.1 53 -18.3 -0.9
13:00 1028 30.36 857 25.31 -10.6 12.9 53 -18.4 -1.1
13:05 1028 30.36 857 25.31 -10.5 13.1 54 -18.1 -0.5
13:10 1028 30.36 857 25.31 -10.5 13.2 54 -18.1 -0.6
13:15 1027 30.33 857 25.31 -10.3 13.5 54 -18 -0.3
13:20 1027 30.33 857 25.31 -10.2 13.6 53 -18.1 -0.6
13:25 1027 30.33 857 25.31 -10.1 13.8 53 -18 -0.4
13:30 1027 30.33 857 25.31 -9.9 14.1 53 -17.9 -0.2
13:35 1027 30.33 856 25.28 -9.2 15.4 48 -18.3 -0.9
13:40 1027 30.33 856 25.28 -8.7 16.3 49 -17.6 0.3
13:45 1027 30.33 856 25.28 -7.8 17.9 46 -17.6 0.3
13:50 1027 30.33 856 25.28 -7.3 18.9 44 -17.5 0.5
13:55 1027 30.33 856 25.28 -7.3 18.8 44 -17.7 0.2
14:00 1027 30.33 856 25.28 -7.5 18.6 44 -17.8 -0.1
14:05 1027 30.33 856 25.28 -7.2 19 45 -17.4 0.7
14:10 1027 30.33 856 25.28 -7 19.4 44 -17.3 0.9
14:15 1027 30.33 856 25.28 -6.5 20.2 43 -17.3 0.9
14:20 1027 30.33 856 25.28 -6.2 20.9 42 -17.1 1.2
14:25 1027 30.33 856 25.28 -6.3 20.7 42 -17.2 1
14:30 1027 30.33 856 25.28 -6.7 19.9 44 -17.1 1.2
14:35 1027 30.33 856 25.28 -6.9 19.7 44 -17.3 0.9
14:40 1027 30.33 856 25.28 -6.8 19.8 43 -17.3 0.9
14:45 1027 30.33 857 25.31 -6.8 19.7 44 -17.2 1
14:50 1027 30.33 857 25.31 -6.8 19.8 44 -17.1 1.3
14:55 1027 30.33 857 25.31 -6.9 19.5 45 -17.1 1.2
15:00 1027 30.33 857 25.31 -7.3 18.9 44 -17.5 0.4
15:05 1027 30.33 857 25.31 -7 19.3 44 -17.2 1
15:10 1027 30.33 857 25.31 -6.6 20.1 43 -17.2 1.1
15:15 1027 30.33 857 25.31 -6.7 20 43 -17.4 0.8
15:20 1027 30.33 857 25.31 -7.2 19.1 44 -17.4 0.7
15:25 1027 30.33 857 25.31 -6.9 19.5 43 -17.5 0.4
15:30 1027 30.33 857 25.31 -6.8 19.7 43 -17.5 0.6
15:35 1027 30.33 857 25.31 -6.7 20 42 -17.5 0.5
15:40 1028 30.36 857 25.31 -7 19.5 43 -17.4 0.6
15:45 1027 30.33 857 25.31 -6.8 19.8 41 -17.8 -0.1
15:50 1027 30.33 857 25.31 -7.1 19.3 44 -17.4 0.6
15:55 1027 30.33 857 25.31 -7.1 19.2 44 -17.5 0.6
16:00 1027 30.33 857 25.31 -6.9 19.6 43 -17.4 0.6
16:05 1027 30.33 857 25.31 -6.9 19.6 44 -17.3 0.9
16:10 1027 30.33 857 25.31 -7.2 19 46 -17.1 1.2
16:15 1027 30.33 857 25.31 -7.1 19.2 45 -17.3 0.9
16:20 1027 30.33 857 25.31 -7.2 19 45 -17.2 1.1
16:25 1027 30.33 857 25.31 -7.4 18.7 45 -17.3 0.9
16:30 1027 30.33 857 25.31 -7.5 18.4 42 -18.3 -1
16:35 1027 30.33 857 25.31 -8 17.6 46 -17.7 0.1
16:40 1027 30.33 857 25.31 -8.1 17.4 47 -17.5 0.5
16:45 1027 30.33 857 25.31 -8.5 16.7 52 -16.6 2.1
16:50 1027 30.33 857 25.31 -8.9 15.9 55 -16.4 2.5
16:55 1028 30.36 857 25.31 -9.3 15.2 56 -16.6 2.1
17:00 1028 30.36 857 25.31 -9.8 14.4 58 -16.5 2.3
17:05 1027 30.33 857 25.31 -9.9 14.1 58 -16.6 2.1
17:10 1027 30.33 857 25.31 -10.1 13.8 59 -16.8 1.8
17:15 1027 30.33 857 25.31 -10.3 13.6 60 -16.6 2.2
17:20 1027 30.33 857 25.31 -10.4 13.3 61 -16.6 2.1
17:25 1027 30.33 857 25.31 -10.4 13.4 61 -16.5 2.3
17:30 1027 30.33 857 25.31 -10.3 13.4 61 -16.5 2.3
17:35 1028 30.36 857 25.31 -10.4 13.3 60 -16.7 1.9
17:40 1028 30.36 857 25.31 -10.3 13.5 60 -16.7 2
17:45 1028 30.36 857 25.31 -10.2 13.6 60 -16.6 2
17:50 1028 30.36 857 25.31 -10.2 13.7 60 -16.5 2.3
17:55 1028 30.36 857 25.31 -10.4 13.4 61 -16.4 2.4
18:00 1028 30.36 857 25.31 -10.5 13.1 62 -16.5 2.3
18:05 1028 30.36 857 25.31 -10.7 12.8 61 -16.8 1.8
18:10 1028 30.36 857 25.31 -10.7 12.7 61 -16.8 1.8
18:15 1028 30.36 857 25.31 -10.8 12.6 61 -16.9 1.6
18:20 1028 30.36 857 25.31 -11.1 12.1 63 -16.8 1.7
18:25 1028 30.36 857 25.31 -11.8 10.7 69 -16.4 2.5
18:30 1028 30.36 857 25.31 -12.4 9.7 73 -16.3 2.6
18:35 1028 30.36 857 25.31 -12.3 9.9 72 -16.4 2.5
18:40 1028 30.36 857 25.31 -12.1 10.3 72 -16.2 2.9
18:45 1028 30.36 857 25.31 -11.7 10.9 68 -16.4 2.4
18:50 1028 30.36 857 25.31 -11.6 11 66 -16.7 1.9
18:55 1028 30.36 857 25.31 -11.5 11.3 63 -17.3 0.9
19:00 1028 30.36 857 25.31 -11.6 11 63 -17.4 0.8
19:05 1028 30.36 857 25.31 -11.9 10.7 65 -17.3 0.9
19:10 1028 30.36 857 25.31 -11.7 11 62 -17.5 0.5
19:15 1028 30.36 857 25.31 -11.8 10.9 63 -17.4 0.7
19:20 1028 30.36 857 25.31 -12 10.3 65 -17.4 0.6
19:25 1028 30.36 857 25.31 -12 10.4 65 -17.4 0.8
19:30 1028 30.36 857 25.31 -11.9 10.6 66 -17 1.4
19:35 1028 30.36 857 25.31 -12.2 10.1 66 -17.3 0.8
19:40 1028 30.36 857 25.31 -12.5 9.6 66 -17.5 0.5
19:45 1028 30.36 857 25.31 -12.3 9.9 66 -17.5 0.5
19:50 1028 30.36 857 25.31 -12.1 10.2 66 -17.2 1
19:55 1028 30.36 857 25.31 -12.3 10 70 -16.7 1.9
20:00 1028 30.36 857 25.31 -12.5 9.5 70 -16.9 1.6
20:05 1028 30.36 857 25.31 -12.3 9.8 69 -16.9 1.6
20:10 1028 30.36 857 25.31 -12 10.3 67 -16.9 1.5
20:15 1028 30.36 857 25.31 -12 10.4 71 -16.3 2.6
20:20 1028 30.36 857 25.31 -11.8 10.7 69 -16.4 2.5
20:25 1027 30.33 857 25.31 -11.7 11 70 -16.2 2.9
20:30 1027 30.33 857 25.31 -11.7 10.9 70 -16.1 3
20:35 1027 30.33 857 25.31 -12.1 10.2 69 -16.7 1.9
20:40 1027 30.33 857 25.31 -12.1 10.1 67 -17.1 1.3
20:45 1027 30.33 857 25.31 -11.7 11 63 -17.4 0.7
20:50 1027 30.33 857 25.31 -12 10.5 67 -17 1.5
20:55 1027 30.33 857 25.31 -11.8 10.7 66 -17 1.4
21:00 1027 30.33 857 25.31 -12 10.5 66 -17.1 1.2
21:05 1027 30.33 857 25.31 -12.3 9.8 66 -17.4 0.6
21:10 1027 30.33 857 25.31 -12.6 9.4 68 -17.3 0.9
21:15 1027 30.33 857 25.31 -12.7 9.1 70 -17.1 1.2
21:20 1027 30.33 856 25.28 -12.7 9.2 69 -17.3 0.8
21:25 1027 30.33 856 25.28 -12.4 9.7 70 -16.7 1.9
21:30 1027 30.33 856 25.28 -12.5 9.6 71 -16.7 1.9
21:35 1027 30.33 857 25.31 -12.7 9.2 69 -17.2 1
21:40 1027 30.33 857 25.31 -12.5 9.5 68 -17.2 1
21:45 1027 30.33 857 25.31 -12.4 9.8 68 -17.1 1.2
21:50 1027 30.33 857 25.31 -12.3 9.9 67 -17.1 1.1
21:55 1027 30.33 857 25.31 -12.3 9.8 70 -16.8 1.7
22:00 1027 30.33 857 25.31 -12.1 10.1 69 -16.6 2
22:05 1027 30.33 857 25.31 -11.9 10.5 69 -16.6 2.1
22:10 1027 30.33 857 25.31 -12.5 9.4 74 -16.2 2.8
22:15 1027 30.33 857 25.31 -12.8 8.9 77 -16.1 3.1
22:20 1027 30.33 857 25.31 -12.9 8.7 74 -16.7 2
22:25 1027 30.33 857 25.31 -12.5 9.5 72 -16.6 2.2
22:30 1027 30.33 857 25.31 -12.2 10.1 71 -16.4 2.6
22:35 1027 30.33 857 25.31 -12.1 10.2 72 -16.1 3
22:40 1027 30.33 857 25.31 -12 10.4 72 -16.1 2.9
22:45 1027 30.33 857 25.31 -12.1 10.3 72 -16.2 2.9
22:50 1027 30.33 857 25.31 -12.1 10.3 72 -16.1 3
22:55 1027 30.33 857 25.31 -12 10.5 70 -16.4 2.6
23:00 1027 30.33 857 25.31 -12.1 10.2 71 -16.3 2.6
23:05 1027 30.33 857 25.31 -12.1 10.2 74 -15.9 3.4
23:10 1027 30.33 857 25.31 -11.9 10.5 71 -16.2 2.9
23:15 1027 30.33 857 25.31 -12.6 9.3 71 -16.8 1.7
23:20 1027 30.33 857 25.31 -12.6 9.4 70 -17 1.5
23:25 1027 30.33 857 25.31 -12.2 10 74 -16 3.2
23:30 1027 30.33 857 25.31 -12.1 10.2 74 -15.9 3.4
23:35 1027 30.33 857 25.31 -12.1 10.2 76 -15.5 4
23:40 1027 30.33 857 25.31 -11.8 10.8 76 -15.3 4.5
23:45 1027 30.33 857 25.31 -11.7 11 74 -15.4 4.3
23:50 1027 30.33 856 25.28 -11.8 10.7 74 -15.6 3.9
23:55 1027 30.33 856 25.28 -12.1 10.2 74 -15.8 3.6
24:00 1027 30.33 856 25.28 -12.2 10 74 -16.1 3.1